Time;durP1;ratioP1;P1;durP2;ratioP2;P2;SDS_P1;SDS_P2;PMS_P1;PMS_P2;Temp;Humidity;BMP_temperature;BMP_pressure;BME280_temperature;BME280_humidity;BME280_pressure;Samples;Min_cycle;Max_cycle;Signal;HPM_P1;HPM_P2
2022/04/23 00:01:03;;;;;;;7.85;2.30;;;;;;;14.53;44.56;94227.50;5072319;28;20040;-83
2022/04/23 00:03:29;;;;;;;11.57;2.97;;;;;;;14.86;45.00;94257.03;5073173;28;20088;-83
2022/04/23 00:05:54;;;;;;;12.90;2.70;;;;;;;14.97;43.29;94252.06;5075290;28;20520;-83
2022/04/23 00:08:20;;;;;;;10.85;2.63;;;;;;;14.64;43.86;94175.34;5085806;28;20028;-83
2022/04/23 00:10:45;;;;;;;5.55;2.05;;;;;;;14.42;44.34;94150.84;5077412;28;20032;-83
2022/04/23 00:13:11;;;;;;;10.75;2.47;;;;;;;15.27;44.47;94274.97;5083184;28;20049;-83
2022/04/23 00:15:37;;;;;;;9.70;2.22;;;;;;;14.21;44.28;94146.16;5080069;28;20470;-84
2022/04/23 00:18:09;;;;;;;15.20;2.10;;;;;;;14.68;44.13;94210.94;5079878;28;20177;-83
2022/04/23 00:20:36;;;;;;;13.38;2.58;;;;;;;15.03;44.54;94280.94;5084473;28;20438;-83
2022/04/23 00:23:06;;;;;;;8.13;2.83;;;;;;;14.78;44.82;94239.16;5075358;28;20040;-83
2022/04/23 00:25:35;;;;;;;7.05;2.92;;;;;;;13.83;45.20;94105.41;5088853;28;20435;-83
2022/04/23 00:28:00;;;;;;;8.35;2.35;;;;;;;14.30;44.48;94154.91;5090573;28;20093;-83
2022/04/23 00:30:26;;;;;;;5.88;1.95;;;;;;;14.30;44.93;94148.81;5073393;28;20499;-83
2022/04/23 00:32:51;;;;;;;13.05;2.30;;;;;;;14.90;44.04;94231.22;5091136;28;20036;-84
2022/04/23 00:35:18;;;;;;;6.20;2.13;;;;;;;15.26;43.65;94259.28;5090201;28;20043;-83
2022/04/23 00:37:44;;;;;;;19.42;2.92;;;;;;;15.20;43.84;94279.28;5087992;28;20028;-83
2022/04/23 00:40:17;;;;;;;9.45;2.55;;;;;;;14.82;44.21;94197.34;5068945;28;20545;-83
2022/04/23 00:42:57;;;;;;;7.47;2.30;;;;;;;15.30;44.03;94266.34;5069815;28;20113;-83
2022/04/23 00:45:24;;;;;;;9.65;2.22;;;;;;;15.11;44.06;94209.09;5070996;28;20093;-83
2022/04/23 00:47:50;;;;;;;11.77;2.22;;;;;;;14.70;44.15;94186.59;5071138;28;20063;-83
2022/04/23 00:50:23;;;;;;;11.40;2.45;;;;;;;15.23;43.84;94257.28;5084261;28;20038;-83
2022/04/23 00:52:54;;;;;;;15.73;2.80;;;;;;;15.31;43.37;94254.53;5071440;28;20507;-83
2022/04/23 00:55:20;;;;;;;11.30;2.55;;;;;;;15.31;42.96;94237.72;5089880;28;20038;-83
2022/04/23 00:57:46;;;;;;;9.15;2.80;;;;;;;15.50;43.03;94253.28;5090665;28;20494;-83
2022/04/23 01:00:12;;;;;;;9.07;2.47;;;;;;;14.70;44.07;94130.56;5090211;28;20052;-83
2022/04/23 01:02:38;;;;;;;13.57;2.75;;;;;;;15.09;43.50;94193.44;5086568;28;20035;-82
2022/04/23 01:05:08;;;;;;;12.35;2.70;;;;;;;14.52;42.98;94100.53;5071017;28;20033;-82
2022/04/23 01:07:38;;;;;;;14.35;2.50;;;;;;;15.58;43.24;94255.16;5077628;28;20020;-83
2022/04/23 01:10:05;;;;;;;9.40;2.65;;;;;;;15.09;43.92;94222.81;5082976;28;20034;-82
2022/04/23 01:12:31;;;;;;;8.93;2.50;;;;;;;15.27;44.24;94285.66;5079168;28;20048;-82
2022/04/23 01:15:02;;;;;;;16.15;2.47;;;;;;;15.29;44.03;94264.75;5089201;28;20401;-82
2022/04/23 01:17:28;;;;;;;15.18;3.53;;;;;;;15.02;44.73;94246.56;5088950;28;20660;-83
2022/04/23 01:19:53;;;;;;;6.57;2.40;;;;;;;14.61;43.03;94151.19;5075122;28;20075;-82
2022/04/23 01:22:19;;;;;;;8.82;3.08;;;;;;;14.85;43.28;94180.72;5086542;28;20031;-82
2022/04/23 01:24:45;;;;;;;16.13;2.67;;;;;;;14.73;44.91;94169.16;5071632;28;20028;-82
2022/04/23 01:27:10;;;;;;;13.68;2.38;;;;;;;14.29;45.98;94123.22;5087636;28;20020;-82
2022/04/23 01:29:37;;;;;;;7.72;2.55;;;;;;;14.77;44.47;94199.44;5090752;28;20036;-83
2022/04/23 01:32:06;;;;;;;14.02;2.72;;;;;;;15.24;44.38;94259.63;5074375;28;20032;-83
2022/04/23 01:34:32;;;;;;;22.05;2.92;;;;;;;15.05;43.78;94200.50;5073265;28;20035;-83
2022/04/23 01:36:58;;;;;;;11.00;2.50;;;;;;;15.28;44.97;94265.88;5073640;28;20401;-82
2022/04/23 01:39:23;;;;;;;14.95;3.22;;;;;;;14.89;45.10;94216.31;5084510;28;20028;-82
2022/04/23 01:41:49;;;;;;;9.38;2.97;;;;;;;14.71;45.83;94211.41;5069173;28;20052;-83
2022/04/23 01:44:14;;;;;;;16.00;3.28;;;;;;;14.42;47.25;94266.28;5075697;28;20024;-82
2022/04/23 01:46:40;;;;;;;6.13;2.63;;;;;;;13.48;48.48;94171.31;5091291;28;20028;-82
2022/04/23 01:49:05;;;;;;;10.15;3.28;;;;;;;13.69;49.38;94283.34;5080008;28;20093;-83
2022/04/23 01:51:31;;;;;;;15.70;3.53;;;;;;;12.82;50.42;94196.47;5078928;28;20032;-82
2022/04/23 01:53:56;;;;;;;12.27;3.05;;;;;;;12.53;50.88;94159.78;5079028;28;20035;-82
2022/04/23 01:56:22;;;;;;;10.32;3.10;;;;;;;13.25;51.11;94295.84;5069402;28;20065;-83
2022/04/23 01:58:47;;;;;;;7.80;2.90;;;;;;;10.80;50.67;93868.97;5084205;28;20040;-82
2022/04/23 02:01:13;;;;;;;8.00;2.70;;;;;;;12.63;51.17;94165.63;5076121;28;20032;-82
2022/04/23 02:03:38;;;;;;;12.32;2.90;;;;;;;12.78;50.89;94193.66;5084725;28;20036;-83
2022/04/23 02:06:04;;;;;;;7.40;3.13;;;;;;;12.72;50.72;94166.41;5090716;28;20036;-82
2022/04/23 02:08:30;;;;;;;8.68;2.30;;;;;;;12.82;50.47;94169.84;5089450;28;20028;-83
2022/04/23 02:10:56;;;;;;;9.85;2.60;;;;;;;13.00;50.77;94185.53;5071606;28;20032;-83
2022/04/23 02:13:21;;;;;;;13.25;3.13;;;;;;;12.78;50.37;94153.75;5068936;28;20049;-82
2022/04/23 02:15:47;;;;;;;13.57;2.83;;;;;;;12.68;50.78;94154.03;5069423;28;20044;-82
2022/04/23 02:18:14;;;;;;;8.38;2.85;;;;;;;13.37;50.56;94245.41;5071604;28;20420;-83
2022/04/23 02:20:39;;;;;;;8.48;2.78;;;;;;;13.59;51.05;94249.78;5085872;28;20555;-82
2022/04/23 02:23:06;;;;;;;7.00;2.60;;;;;;;13.34;51.69;94243.38;5074217;28;20036;-83
2022/04/23 02:25:36;;;;;;;12.82;3.90;;;;;;;13.70;52.13;94296.34;5083584;28;20028;-83
2022/04/23 02:28:03;;;;;;;4.55;2.47;;;;;;;13.11;52.01;94178.03;5068615;28;20044;-83
2022/04/23 02:30:29;;;;;;;7.13;3.22;;;;;;;13.56;51.74;94285.06;5079550;28;20032;-82
2022/04/23 02:32:55;;;;;;;11.68;3.38;;;;;;;12.88;51.49;94219.97;5088388;28;20032;-83
2022/04/23 02:35:21;;;;;;;12.45;3.20;;;;;;;13.62;50.71;94307.00;5078727;28;20031;-83
2022/04/23 02:37:48;;;;;;;12.18;3.30;;;;;;;13.54;51.47;94303.22;5083092;28;20052;-82
2022/04/23 02:40:15;;;;;;;14.68;3.70;;;;;;;13.62;51.52;94299.78;5089131;28;20126;-83
2022/04/23 02:42:41;;;;;;;16.65;3.67;;;;;;;12.83;51.35;94164.22;5074063;28;20060;-83
2022/04/23 02:45:09;;;;;;;10.10;3.67;;;;;;;13.25;51.99;94261.22;5087934;28;20067;-83
2022/04/23 02:47:46;;;;;;;14.60;4.18;;;;;;;12.31;52.70;94164.13;5071240;28;20060;-84
2022/04/23 02:50:13;;;;;;;11.35;3.47;;;;;;;13.46;52.25;94312.78;5053788;28;20029;-83
2022/04/23 02:52:43;;;;;;;8.68;3.97;;;;;;;13.63;52.50;94308.56;5089219;28;20461;-82
2022/04/23 02:55:11;;;;;;;10.45;3.40;;;;;;;12.86;52.58;94181.47;5088642;28;20035;-83
2022/04/23 02:57:37;;;;;;;12.15;3.45;;;;;;;12.09;52.97;94091.66;5090390;28;20035;-83
2022/04/23 03:00:05;;;;;;;10.60;3.58;;;;;;;13.07;53.45;94251.63;5080347;28;20069;-83
2022/04/23 03:02:34;;;;;;;11.93;3.70;;;;;;;13.17;53.07;94261.22;5069928;28;20036;-83
2022/04/23 03:05:00;;;;;;;10.05;3.83;;;;;;;13.17;53.32;94258.56;5068999;28;20028;-83
2022/04/23 03:07:25;;;;;;;10.07;4.07;;;;;;;13.57;52.99;94304.50;5082255;28;20700;-83
2022/04/23 03:09:51;;;;;;;8.98;3.15;;;;;;;13.22;53.51;94266.38;5088158;28;20421;-83
2022/04/23 03:12:16;;;;;;;9.77;3.97;;;;;;;12.53;52.92;94144.63;5088513;28;20100;-83
2022/04/23 03:14:45;;;;;;;8.68;3.45;;;;;;;12.87;53.49;94215.75;5071856;28;20612;-83
2022/04/23 03:17:11;;;;;;;10.50;3.28;;;;;;;12.78;52.99;94172.38;5071157;28;20501;-82
2022/04/23 03:19:36;;;;;;;8.30;4.03;;;;;;;13.62;52.61;94286.47;5073214;28;20115;-83
2022/04/23 03:22:02;;;;;;;14.98;4.53;;;;;;;13.46;53.81;94285.38;5073679;28;20036;-81
2022/04/23 03:24:28;;;;;;;11.93;4.13;;;;;;;13.09;53.24;94238.78;5093353;28;20050;-83
2022/04/23 03:26:54;;;;;;;12.32;3.30;;;;;;;13.21;53.05;94265.59;5089887;28;20044;-83
2022/04/23 03:29:20;;;;;;;12.82;3.92;;;;;;;13.42;52.67;94297.75;5078365;28;20020;-83
2022/04/23 03:31:48;;;;;;;9.18;3.42;;;;;;;13.25;52.82;94265.78;5093106;28;20038;-83
2022/04/23 03:34:13;;;;;;;14.20;4.40;;;;;;;13.26;53.12;94252.16;5092961;28;20039;-83
2022/04/23 03:36:39;;;;;;;17.23;4.72;;;;;;;13.02;52.86;94227.81;5086107;28;20029;-83
2022/04/23 03:39:04;;;;;;;12.73;3.50;;;;;;;13.18;52.67;94246.81;5086194;28;20054;-83
2022/04/23 03:41:30;;;;;;;8.40;3.85;;;;;;;12.67;54.59;94243.69;5101317;28;20546;-83
2022/04/23 03:43:55;;;;;;;10.35;4.13;;;;;;;12.99;55.53;94321.56;5103126;28;20063;-83
2022/04/23 03:46:21;;;;;;;14.15;4.32;;;;;;;12.65;54.54;94245.13;5081777;28;20027;-83
2022/04/23 03:48:46;;;;;;;12.48;4.10;;;;;;;13.14;54.74;94311.31;5092475;28;20028;-83
2022/04/23 03:51:12;;;;;;;14.13;4.47;;;;;;;12.50;55.29;94224.25;5098204;28;20023;-83
2022/04/23 03:53:37;;;;;;;11.15;4.18;;;;;;;12.49;54.79;94202.19;5093812;28;20035;-83
2022/04/23 03:56:04;;;;;;;30.25;5.18;;;;;;;12.76;54.62;94243.72;5089347;28;20097;-83
2022/04/23 03:58:29;;;;;;;15.32;4.80;;;;;;;13.07;54.24;94284.34;5075798;28;20028;-83
2022/04/23 04:00:55;;;;;;;21.02;4.72;;;;;;;12.74;55.64;94254.66;5090779;28;20101;-82
2022/04/23 04:03:20;;;;;;;19.13;5.72;;;;;;;12.66;54.96;94234.13;5092503;28;20448;-82
2022/04/23 04:05:48;;;;;;;22.70;5.63;;;;;;;13.31;54.75;94309.78;5091388;28;20591;-82
2022/04/23 04:08:14;;;;;;;27.02;5.60;;;;;;;12.76;54.88;94227.75;5090782;28;20588;-82
2022/04/23 04:10:40;;;;;;;21.17;5.10;;;;;;;12.84;55.03;94272.22;5082368;28;20032;-83
2022/04/23 04:13:06;;;;;;;23.05;5.55;;;;;;;12.75;55.78;94296.13;5072445;28;20045;-83
2022/04/23 04:15:32;;;;;;;16.75;4.47;;;;;;;12.28;55.96;94219.78;5084456;28;20039;-83
2022/04/23 04:17:58;;;;;;;18.25;4.95;;;;;;;12.64;55.82;94248.84;5092504;28;20035;-83
2022/04/23 04:20:23;;;;;;;19.98;4.88;;;;;;;12.83;56.23;94277.84;5091446;28;20541;-83
2022/04/23 04:22:49;;;;;;;19.08;4.85;;;;;;;12.82;57.11;94322.31;5075810;28;20709;-83
2022/04/23 04:25:15;;;;;;;19.83;5.30;;;;;;;13.10;57.46;94350.28;5071064;28;20039;-83
2022/04/23 04:27:41;;;;;;;12.48;3.97;;;;;;;12.02;56.88;94177.16;5088657;28;20640;-83
2022/04/23 04:30:11;;;;;;;16.35;4.60;;;;;;;12.97;56.97;94321.88;5074210;28;20089;-83
2022/04/23 04:32:37;;;;;;;12.70;4.68;;;;;;;12.29;56.68;94205.38;5092032;28;20028;-83
2022/04/23 04:35:03;;;;;;;15.65;4.05;;;;;;;12.13;56.23;94162.47;5090559;28;20028;-83
2022/04/23 04:37:29;;;;;;;18.77;5.50;;;;;;;12.97;55.33;94283.88;5087408;28;20099;-83
2022/04/23 04:39:54;;;;;;;15.00;5.07;;;;;;;12.63;54.47;94218.03;5072372;28;20458;-82
2022/04/23 04:42:20;;;;;;;14.55;4.20;;;;;;;13.52;54.54;94362.16;5078299;28;20036;-82
2022/04/23 04:44:46;;;;;;;13.77;4.43;;;;;;;13.32;54.43;94335.31;5080784;28;20024;-82
2022/04/23 04:47:11;;;;;;;14.50;4.50;;;;;;;13.31;54.92;94323.88;5081389;28;20024;-82
2022/04/23 04:49:38;;;;;;;18.13;4.47;;;;;;;13.72;54.31;94374.09;5090915;28;20044;-82
2022/04/23 04:52:04;;;;;;;16.48;5.15;;;;;;;13.11;54.49;94282.66;5079672;28;20086;-82
2022/04/23 04:54:30;;;;;;;20.17;5.72;;;;;;;13.49;53.93;94340.69;5071550;28;20472;-82
2022/04/23 04:57:02;;;;;;;31.17;6.57;;;;;;;13.51;53.82;94327.81;5085995;28;20151;-82
2022/04/23 04:59:28;;;;;;;28.08;6.03;;;;;;;13.47;54.41;94321.56;5091846;28;20118;-82
2022/04/23 05:01:54;;;;;;;19.42;5.75;;;;;;;13.78;54.43;94367.50;5092165;28;20068;-83
2022/04/23 05:04:20;;;;;;;53.35;7.60;;;;;;;12.97;55.05;94241.28;5090669;28;20027;-82
2022/04/23 05:06:46;;;;;;;27.33;7.30;;;;;;;14.14;53.40;94401.06;5094628;28;20479;-82
2022/04/23 05:09:11;;;;;;;25.92;6.90;;;;;;;13.49;52.80;94319.38;5074236;28;20035;-82
2022/04/23 05:11:37;;;;;;;31.13;9.50;;;;;;;13.85;52.34;94404.34;5074814;28;20028;-83
2022/04/23 05:14:02;;;;;;;29.75;10.13;;;;;;;13.44;52.85;94364.78;5088166;28;20426;-82
2022/04/23 05:16:28;;;;;;;31.92;11.82;;;;;;;13.14;53.26;94363.78;5076538;28;20526;-82
2022/04/23 05:18:53;;;;;;;31.88;10.90;;;;;;;13.74;53.54;94440.38;5089700;28;20024;-82
2022/04/23 05:21:19;;;;;;;23.83;9.68;;;;;;;13.59;53.75;94422.94;5092131;28;20038;-82
2022/04/23 05:23:44;;;;;;;32.45;9.02;;;;;;;12.48;53.25;94259.13;5082970;28;20113;-82
2022/04/23 05:26:10;;;;;;;17.15;6.03;;;;;;;12.87;55.76;94367.41;5078808;28;20502;-82
2022/04/23 05:28:36;;;;;;;19.08;6.47;;;;;;;12.91;56.76;94408.28;5094500;28;20088;-82
2022/04/23 05:31:03;;;;;;;19.00;6.57;;;;;;;13.19;57.37;94418.78;5096919;28;20665;-82
2022/04/23 05:33:28;;;;;;;16.27;5.05;;;;;;;13.13;59.16;94439.41;5096802;28;20036;-82
2022/04/23 05:35:54;;;;;;;8.20;5.45;;;;;;;11.91;60.01;94266.16;5095311;28;20116;-82
2022/04/23 05:38:20;;;;;;;13.48;5.32;;;;;;;13.12;60.25;94451.13;5094032;28;20039;-82
2022/04/23 05:40:49;;;;;;;10.82;4.60;;;;;;;12.57;60.65;94363.69;5090419;28;20502;-83
2022/04/23 05:43:16;;;;;;;15.55;4.50;;;;;;;12.80;61.39;94408.88;5076458;28;20182;-82
2022/04/23 05:45:43;;;;;;;10.23;4.93;;;;;;;12.35;61.82;94342.44;5071161;28;20043;-82
2022/04/23 05:48:09;;;;;;;11.40;4.30;;;;;;;13.15;61.26;94434.56;5070391;28;20047;-82
2022/04/23 05:50:34;;;;;;;12.18;4.43;;;;;;;13.18;61.42;94457.13;5072200;28;20029;-81
2022/04/23 05:53:00;;;;;;;19.17;4.45;;;;;;;13.35;61.02;94427.91;5074235;28;20032;-83
2022/04/23 05:55:26;;;;;;;12.35;4.50;;;;;;;12.90;61.33;94361.47;5089948;28;20510;-82
2022/04/23 05:57:51;;;;;;;11.07;4.30;;;;;;;12.83;60.39;94333.72;5082202;28;20039;-82
2022/04/23 06:00:17;;;;;;;12.80;4.47;;;;;;;13.05;60.56;94390.34;5070037;28;20410;-82
2022/04/23 06:02:43;;;;;;;10.57;4.38;;;;;;;12.87;60.88;94322.19;5080552;28;20041;-82
2022/04/23 06:05:10;;;;;;;12.57;5.40;;;;;;;13.67;60.22;94419.53;5089437;28;20105;-82
2022/04/23 06:07:36;;;;;;;15.48;4.53;;;;;;;13.81;59.59;94419.38;5089961;28;20028;-82
2022/04/23 06:10:02;;;;;;;12.20;3.83;;;;;;;13.72;59.54;94399.97;5090357;28;20028;-82
2022/04/23 06:12:27;;;;;;;14.65;4.85;;;;;;;13.99;59.19;94402.31;5090128;28;20067;-82
2022/04/23 06:14:53;;;;;;;15.93;6.40;;;;;;;14.05;57.58;94402.94;5089718;28;20036;-82
2022/04/23 06:17:24;;;;;;;22.35;6.63;;;;;;;14.29;56.45;94412.06;5090611;28;20115;-82
2022/04/23 06:19:50;;;;;;;24.08;7.13;;;;;;;14.66;56.51;94452.53;5089547;28;20280;-83
2022/04/23 06:22:15;;;;;;;28.55;7.28;;;;;;;14.51;57.06;94447.69;5090601;28;20047;-83
2022/04/23 06:24:41;;;;;;;16.20;7.28;;;;;;;13.75;57.70;94344.16;5089090;28;20032;-83
2022/04/23 06:27:06;;;;;;;20.38;6.53;;;;;;;14.07;57.50;94380.22;5085834;28;20092;-83
2022/04/23 06:29:32;;;;;;;17.02;6.22;;;;;;;14.11;56.95;94353.72;5070943;28;20028;-83
2022/04/23 06:31:57;;;;;;;13.02;6.13;;;;;;;15.03;56.22;94451.03;5070894;28;20029;-83
2022/04/23 06:34:23;;;;;;;14.18;6.40;;;;;;;14.19;56.59;94337.69;5077169;28;20043;-83
2022/04/23 06:36:48;;;;;;;12.80;6.75;;;;;;;15.16;55.97;94450.06;5088168;28;20028;-83
2022/04/23 06:39:14;;;;;;;18.40;7.00;;;;;;;15.16;54.84;94407.34;5078840;28;20464;-83
2022/04/23 06:41:39;;;;;;;19.35;7.22;;;;;;;14.62;54.98;94342.19;5081894;28;20039;-83
2022/04/23 06:44:05;;;;;;;19.55;6.93;;;;;;;14.94;54.71;94391.56;5076313;28;20035;-83
2022/04/23 06:46:30;;;;;;;22.13;7.72;;;;;;;15.20;54.48;94412.81;5069095;28;20483;-83
2022/04/23 06:48:56;;;;;;;23.80;7.75;;;;;;;15.03;55.17;94408.31;5069147;28;20029;-82
2022/04/23 06:51:22;;;;;;;16.73;5.88;;;;;;;14.79;55.38;94349.38;5088551;28;20096;-84
2022/04/23 06:53:47;;;;;;;12.75;5.75;;;;;;;15.56;55.00;94441.78;5093240;28;20291;-83
2022/04/23 06:56:13;;;;;;;15.05;5.68;;;;;;;15.48;56.15;94448.72;5094608;28;20432;-82
2022/04/23 06:58:39;;;;;;;17.02;5.60;;;;;;;14.70;56.58;94351.28;5076313;28;20041;-83
2022/04/23 07:01:04;;;;;;;16.48;6.68;;;;;;;15.10;56.32;94408.63;5090510;28;20060;-83
2022/04/23 07:03:30;;;;;;;22.17;8.30;;;;;;;14.71;56.81;94392.88;5075320;28;20411;-83
2022/04/23 07:05:55;;;;;;;17.27;5.50;;;;;;;14.95;56.45;94428.59;5089728;28;20036;-82
2022/04/23 07:08:21;;;;;;;12.65;4.82;;;;;;;14.53;56.39;94346.78;5075894;28;20027;-82
2022/04/23 07:10:46;;;;;;;18.10;5.20;;;;;;;14.74;56.10;94357.53;5092350;28;20105;-83
2022/04/23 07:13:12;;;;;;;17.08;6.68;;;;;;;15.16;56.04;94419.91;5084048;28;20044;-83
2022/04/23 07:15:41;;;;;;;10.70;4.25;;;;;;;14.91;56.03;94397.53;5071790;28;20116;-83
2022/04/23 07:18:07;;;;;;;13.68;3.30;;;;;;;15.04;56.04;94401.88;5082540;28;20065;-83
2022/04/23 07:20:33;;;;;;;8.57;3.47;;;;;;;14.66;55.98;94396.50;5092109;28;20489;-82
2022/04/23 07:25:43;;;;;;;8.52;3.35;;;;;;;14.77;56.17;94412.97;5077356;28;20170;-83
2022/04/23 07:28:08;;;;;;;10.45;2.97;;;;;;;14.63;55.76;94419.28;5072722;28;20036;-83
2022/04/23 07:30:35;;;;;;;8.30;3.40;;;;;;;15.13;56.63;94489.97;5072524;28;20037;-83
2022/04/23 07:33:01;;;;;;;9.60;3.00;;;;;;;14.98;56.72;94501.94;5071220;28;20047;-83
2022/04/23 07:38:19;;;;;;;11.70;3.90;;;;;;;14.93;56.00;94478.09;5084193;28;20058;-83
2022/04/23 07:40:46;;;;;;;15.55;3.53;;;;;;;14.94;55.27;94469.78;5082388;28;20529;-83
2022/04/23 07:43:14;;;;;;;13.52;3.13;;;;;;;14.70;55.80;94426.78;5078300;28;20105;-83
2022/04/23 07:45:41;;;;;;;13.05;3.75;;;;;;;15.37;55.16;94507.03;5085866;28;20034;-83
2022/04/23 07:48:08;;;;;;;11.45;3.55;;;;;;;15.01;55.33;94429.22;5077881;28;20047;-83
2022/04/23 07:50:35;;;;;;;10.60;3.42;;;;;;;14.86;55.77;94433.19;5089958;28;20062;-82
2022/04/23 07:53:01;;;;;;;18.05;3.55;;;;;;;14.76;55.72;94430.84;5091904;28;20032;-82
2022/04/23 07:55:30;;;;;;;11.88;3.40;;;;;;;15.04;56.62;94479.31;5090602;28;20559;-82
2022/04/23 07:58:03;;;;;;;12.15;3.30;;;;;;;15.10;57.48;94523.47;5092753;28;20028;-81
2022/04/23 08:00:30;;;;;;;10.65;3.50;;;;;;;14.81;56.93;94468.06;5088287;28;20024;-82
2022/04/23 08:02:56;;;;;;;13.88;3.88;;;;;;;14.09;57.51;94367.38;5071623;28;20036;-82
2022/04/23 08:05:21;;;;;;;6.25;2.83;;;;;;;14.07;58.69;94380.22;5079056;28;20024;-82
2022/04/23 08:07:47;;;;;;;6.65;2.85;;;;;;;14.49;57.71;94449.91;5083717;28;20035;-82
2022/04/23 08:10:13;;;;;;;10.88;4.25;;;;;;;15.04;58.95;94530.06;5070375;28;20037;-83
2022/04/23 08:12:39;;;;;;;11.77;4.03;;;;;;;14.96;58.66;94525.50;5071719;28;20053;-83
2022/04/23 08:15:05;;;;;;;6.63;3.08;;;;;;;15.02;58.72;94529.59;5083671;28;20032;-82
2022/04/23 08:17:30;;;;;;;10.32;3.28;;;;;;;14.13;58.87;94408.28;5092238;28;20642;-83
2022/04/23 08:19:56;;;;;;;12.52;3.58;;;;;;;14.88;58.67;94503.06;5076072;28;20442;-83
2022/04/23 08:22:23;;;;;;;7.60;3.38;;;;;;;15.24;59.03;94533.97;5069825;28;20048;-84
2022/04/23 08:24:48;;;;;;;7.50;3.00;;;;;;;14.76;58.46;94467.44;5088200;28;20113;-84
2022/04/23 08:27:14;;;;;;;11.75;3.22;;;;;;;14.61;58.46;94445.47;5072296;28;20487;-83
2022/04/23 08:32:24;;;;;;;9.55;2.80;;;;;;;15.16;56.86;94540.09;5092456;28;20104;-83
2022/04/23 08:34:49;;;;;;;16.08;3.40;;;;;;;14.86;56.76;94472.47;5091605;28;20035;-83
2022/04/23 08:37:15;;;;;;;6.13;2.38;;;;;;;15.20;56.01;94535.69;5082859;28;20033;-83
2022/04/23 08:39:42;;;;;;;6.75;2.10;;;;;;;14.97;56.31;94471.78;5079169;28;20032;-83
2022/04/23 08:42:09;;;;;;;5.53;2.05;;;;;;;15.23;56.12;94501.13;5090903;28;20093;-84
2022/04/23 08:44:37;;;;;;;7.63;2.03;;;;;;;15.38;55.36;94543.34;5091672;28;20036;-83
2022/04/23 08:47:04;;;;;;;6.40;1.90;;;;;;;14.56;55.57;94418.97;5091083;28;20032;-83
2022/04/23 08:49:34;;;;;;;10.35;2.40;;;;;;;14.73;55.24;94457.38;5075672;28;20109;-82
2022/04/23 08:52:18;;;;;;;8.27;1.80;;;;;;;14.88;55.60;94483.59;5087371;28;20035;-83
2022/04/23 08:54:44;;;;;;;7.05;2.05;;;;;;;15.30;55.15;94492.59;5091569;28;20078;-83
2022/04/23 08:57:10;;;;;;;10.45;2.88;;;;;;;15.51;53.86;94546.91;5091391;28;20479;-83
2022/04/23 08:59:37;;;;;;;3.83;2.00;;;;;;;15.12;54.05;94489.19;5091773;28;20111;-83
2022/04/23 09:02:08;;;;;;;8.75;2.00;;;;;;;14.96;53.33;94442.72;5083313;28;20376;-83
2022/04/23 09:04:33;;;;;;;8.02;2.20;;;;;;;14.87;53.62;94426.75;5080740;28;20120;-83
2022/04/23 09:06:58;;;;;;;7.20;2.30;;;;;;;15.11;53.69;94489.50;5079704;28;20054;-83
2022/04/23 09:09:25;;;;;;;8.25;2.45;;;;;;;14.83;53.43;94433.03;5069206;28;20071;-82
2022/04/23 09:11:58;;;;;;;9.55;2.42;;;;;;;15.19;54.26;94489.50;5082123;28;20536;-82
2022/04/23 09:14:33;;;;;;;11.20;1.90;;;;;;;15.15;53.90;94475.22;5089695;28;20509;-82
2022/04/23 09:25:35;;;;;;;4.10;1.95;;;;;;;15.47;52.36;94475.75;5078190;28;20127;-82
2022/04/23 09:28:23;;;;;;;10.35;2.50;;;;;;;15.39;52.17;94466.66;5069867;28;20036;-82
2022/04/23 09:30:56;;;;;;;7.90;1.90;;;;;;;14.96;52.12;94435.50;5070758;28;20094;-83
2022/04/23 09:33:29;;;;;;;8.35;2.45;;;;;;;15.65;52.44;94520.00;5087996;28;20589;-83
2022/04/23 09:36:03;;;;;;;10.35;1.80;;;;;;;15.57;52.18;94494.09;5074941;28;20055;-82
2022/04/23 09:38:30;;;;;;;7.82;2.17;;;;;;;16.01;52.44;94543.63;5082729;28;20064;-82
2022/04/23 09:40:58;;;;;;;9.38;1.90;;;;;;;15.28;52.55;94438.72;5079930;28;20039;-82
2022/04/23 09:43:31;;;;;;;12.13;3.17;;;;;;;15.98;55.17;94525.53;5089755;28;20030;-82
2022/04/23 09:46:04;;;;;;;10.23;2.25;;;;;;;15.64;57.80;94452.41;5078644;28;20040;-82
2022/04/23 09:48:30;;;;;;;8.00;1.92;;;;;;;15.55;57.63;94467.72;5084761;28;20071;-82
2022/04/23 09:50:57;;;;;;;9.65;2.33;;;;;;;15.37;57.03;94432.25;5072608;28;20580;-82
2022/04/23 09:53:27;;;;;;;10.90;2.65;;;;;;;15.48;59.34;94475.44;5070930;28;20036;-82
2022/04/23 09:56:01;;;;;;;11.27;3.33;;;;;;;15.77;60.81;94507.56;5070672;28;20040;-82
2022/04/23 09:58:31;;;;;;;6.07;2.10;;;;;;;15.94;60.02;94508.56;5085677;28;20716;-82
2022/04/23 10:00:58;;;;;;;10.18;2.58;;;;;;;15.19;55.86;94392.56;5076548;28;20031;-82
2022/04/23 10:03:29;;;;;;;8.20;2.20;;;;;;;16.07;56.27;94513.69;5083227;28;20042;-82
2022/04/23 10:05:55;;;;;;;;;;;;;;;16.17;56.93;94510.63;5079222;28;20070;-82
2022/04/23 10:08:23;;;;;;;6.70;2.55;;;;;;;16.06;53.78;94452.50;5077974;28;19916;-82
2022/04/23 10:10:48;;;;;;;13.80;2.75;;;;;;;17.04;53.30;94501.94;5082224;28;20036;-82
2022/04/23 10:13:16;;;;;;;13.88;2.92;;;;;;;17.39;50.15;94420.09;5088444;28;20055;-81
2022/04/23 10:15:46;;;;;;;11.25;2.53;;;;;;;18.01;48.28;94513.63;5074891;28;20101;-83
2022/04/23 10:18:12;;;;;;;8.20;2.55;;;;;;;17.70;48.53;94454.41;5070450;28;20047;-82
2022/04/23 10:20:50;;;;;;;7.82;2.17;;;;;;;18.40;46.71;94457.66;5070247;28;20123;-82
2022/04/23 10:23:23;;;;;;;8.98;2.10;;;;;;;19.14;44.63;94445.56;5069890;28;20056;-82
2022/04/23 10:26:08;;;;;;;11.77;2.83;;;;;;;19.93;43.38;94492.88;5071013;28;20449;-83
2022/04/23 10:28:33;;;;;;;7.63;2.13;;;;;;;20.25;42.31;94461.31;5069730;28;20028;-82
2022/04/23 10:31:16;;;;;;;13.38;2.70;;;;;;;20.25;42.31;94461.31;5069353;28;20530;-82
2022/04/23 10:33:51;;;;;;;7.60;2.45;;;;;;;20.44;41.16;94451.75;5079542;28;20044;-82
2022/04/23 10:36:21;;;;;;;9.35;2.40;;;;;;;20.89;40.80;94468.06;5077227;28;20036;-83
2022/04/23 10:38:52;;;;;;;9.93;2.55;;;;;;;20.78;39.65;94343.88;5085680;28;20063;-83
2022/04/23 10:41:23;;;;;;;8.50;2.13;;;;;;;21.51;38.91;94401.41;5090048;28;20105;-83
2022/04/23 10:43:51;;;;;;;9.18;2.80;;;;;;;22.01;38.95;94489.34;5089625;28;20038;-83
2022/04/23 10:46:38;;;;;;;16.65;2.67;;;;;;;22.34;37.73;94488.69;5086741;28;20114;-83
2022/04/23 10:49:20;;;;;;;9.30;2.33;;;;;;;21.96;37.88;94459.94;5068620;28;20036;-83
2022/04/23 10:51:57;;;;;;;6.28;2.53;;;;;;;22.17;37.60;94448.69;5078299;28;20105;-83
2022/04/23 10:54:42;;;;;;;13.52;2.90;;;;;;;22.46;36.92;94483.06;5076266;28;20067;-83
2022/04/23 10:57:13;;;;;;;15.60;3.28;;;;;;;21.95;38.36;94469.19;5068617;28;20123;-83
2022/04/23 10:59:45;;;;;;;14.27;2.73;;;;;;;21.54;38.91;94489.69;5088516;28;20091;-83
2022/04/23 11:02:20;;;;;;;11.23;2.55;;;;;;;21.09;39.33;94475.00;5088564;28;20039;-83
2022/04/23 11:13:37;;;;;;;9.85;2.38;;;;;;;21.79;37.63;94442.31;5070626;28;20056;-83
2022/04/23 11:16:06;;;;;;;16.75;3.03;;;;;;;22.46;37.13;94483.06;5088305;28;20036;-83
2022/04/23 11:18:33;;;;;;;11.45;2.15;;;;;;;22.54;36.10;94413.69;5089470;28;20878;-83
2022/04/23 11:21:15;;;;;;;11.52;2.83;;;;;;;22.98;35.43;94440.88;5082754;28;20060;-83
2022/04/23 11:23:45;;;;;;;13.70;2.42;;;;;;;23.04;34.51;94410.44;5069028;28;20029;-83
2022/04/23 11:26:15;;;;;;;10.93;1.92;;;;;;;23.68;33.51;94483.38;5069098;28;20035;-84
2022/04/23 11:28:41;;;;;;;15.27;2.55;;;;;;;23.21;34.97;94451.56;5069776;28;20032;-84
2022/04/23 11:31:17;;;;;;;14.50;3.47;;;;;;;23.10;33.75;94454.16;5081846;28;20263;-84
2022/04/23 11:33:54;;;;;;;7.65;1.98;;;;;;;23.22;34.20;94448.47;5088263;28;20071;-83
2022/04/23 11:36:26;;;;;;;11.20;2.30;;;;;;;23.35;33.96;94446.28;5087472;28;20040;-83
2022/04/23 11:38:51;;;;;;;8.23;1.85;;;;;;;22.85;34.59;94451.16;5089580;28;20097;-83
2022/04/23 11:41:44;;;;;;;12.75;2.50;;;;;;;22.27;35.90;94416.44;5071751;28;20044;-83
2022/04/23 11:44:45;;;;;;;7.80;1.92;;;;;;;21.91;36.68;94465.63;5070968;28;20098;-83
2022/04/23 11:47:07;;;;;;;16.88;2.65;;;;;;;21.21;37.51;94419.38;5086764;28;20123;-83
2022/04/23 11:49:33;;;;;;;14.90;2.33;;;;;;;20.56;39.07;94443.50;5075611;28;20052;-83
2022/04/23 11:52:25;;;;;;;10.00;2.10;;;;;;;20.39;40.15;94501.25;5070819;28;20038;-83
2022/04/23 11:54:51;;;;;;;13.00;2.40;;;;;;;19.79;41.31;94449.50;5054799;28;20116;-82